Rockville, Nebraska
Current Conditions -  °F | °C
As of 2:55 AM on Saturday 29 Nov 2014 (Local Time) from KEAR Reporting Station
Clear Clear  
Wind Chill: 37°   Ceiling: Unl
Heat Index: 37°   Visibility: 10mi
Dew Point: 16°   Wind: 0mph
Humidity: 41%   Direction: NA
Pressure: 29.62"   Gusts: NA
Location:  41.12°N, 98.83°W
Report Text: KEAR 290855Z 00000KT 10SM CLR 03/M09 A2962 RMK AO1 57010
Loading
Personal Weather Stations






























Interactive Weather Map New forecast layout! Learn more

10-Day Weather Forecast

Advertisements
Track Severe Weather on mobile